Time;durP1;ratioP1;P1;durP2;ratioP2;P2;SDS_P1;SDS_P2;PMS_P1;PMS_P2;Temp;Humidity;BMP_temperature;BMP_pressure;BME280_temperature;BME280_humidity;BME280_pressure;Samples;Min_cycle;Max_cycle;Signal;HPM_P1;HPM_P2
2022/10/18 00:01:36;;;;;;;1.42;0.85;;;13.00;99.90;;;;;;4987034;28;20023;-76
2022/10/18 00:04:02;;;;;;;3.05;1.10;;;12.90;99.90;;;;;;4978881;28;20062;-75
2022/10/18 00:06:27;;;;;;;1.67;1.30;;;13.00;99.90;;;;;;4969004;28;20047;-77
2022/10/18 00:08:53;;;;;;;8.32;2.08;;;13.00;99.90;;;;;;4984934;28;20030;-74
2022/10/18 00:11:19;;;;;;;1.15;1.13;;;13.10;99.90;;;;;;4968713;28;20054;-76
2022/10/18 00:13:44;;;;;;;7.03;1.90;;;13.10;99.90;;;;;;4969067;28;20030;-76
2022/10/18 00:16:13;;;;;;;1.73;1.27;;;13.00;99.90;;;;;;4982489;28;20022;-76
2022/10/18 00:18:39;;;;;;;0.83;0.83;;;13.00;99.90;;;;;;4988016;28;20030;-75
2022/10/18 00:21:13;;;;;;;4.85;2.10;;;13.00;99.90;;;;;;4988579;28;20392;-76
2022/10/18 00:23:39;;;;;;;1.65;1.55;;;13.10;99.90;;;;;;4988236;28;20025;-76
2022/10/18 00:26:06;;;;;;;4.15;1.15;;;13.10;99.90;;;;;;4970547;28;20046;-76
2022/10/18 00:28:33;;;;;;;1.30;1.20;;;13.10;99.90;;;;;;4987785;28;20033;-75
2022/10/18 00:31:29;;;;;;;2.38;1.20;;;13.10;99.90;;;;;;4987084;28;20027;-75
2022/10/18 00:33:58;;;;;;;1.30;1.20;;;13.10;99.90;;;;;;4974368;28;20097;-75
2022/10/18 00:36:26;;;;;;;1.75;1.25;;;13.20;99.90;;;;;;4986480;28;20038;-75
2022/10/18 00:38:52;;;;;;;1.05;1.00;;;13.10;99.90;;;;;;4988238;28;20030;-75
2022/10/18 00:41:21;;;;;;;1.42;1.33;;;13.00;99.90;;;;;;4981008;28;20031;-76
2022/10/18 00:43:54;;;;;;;0.90;0.90;;;13.00;99.90;;;;;;4968977;28;20019;-75
2022/10/18 00:46:21;;;;;;;1.42;1.00;;;13.10;99.90;;;;;;4981236;28;20113;-76
2022/10/18 00:48:47;;;;;;;1.98;1.10;;;13.10;99.90;;;;;;4987865;28;20550;-73
2022/10/18 00:51:15;;;;;;;2.25;1.08;;;13.20;99.90;;;;;;4988185;28;20503;-74
2022/10/18 00:53:41;;;;;;;1.25;1.15;;;13.20;99.90;;;;;;4971596;28;20033;-73
2022/10/18 00:56:06;;;;;;;1.58;1.42;;;13.20;99.90;;;;;;4967230;28;20030;-73
2022/10/18 00:58:33;;;;;;;2.78;1.83;;;13.20;99.90;;;;;;4968194;28;20110;-74
2022/10/18 01:00:59;;;;;;;4.07;1.15;;;13.20;99.90;;;;;;4967960;28;20078;-73
2022/10/18 01:03:25;;;;;;;1.50;1.27;;;13.20;99.90;;;;;;4966871;28;20038;-74
2022/10/18 01:05:50;;;;;;;1.40;1.27;;;13.20;99.90;;;;;;4984774;28;20039;-76
2022/10/18 01:08:35;;;;;;;3.50;2.05;;;13.30;99.90;;;;;;4982712;28;20472;-76
2022/10/18 01:11:32;;;;;;;1.90;1.15;;;13.30;99.90;;;;;;4968472;28;20121;-75
2022/10/18 01:14:22;;;;;;;2.97;2.60;;;13.30;99.90;;;;;;4968421;28;20030;-75
2022/10/18 01:17:12;;;;;;;4.53;2.67;;;13.30;99.90;;;;;;4966846;28;20608;-75
2022/10/18 01:20:10;;;;;;;5.03;3.05;;;13.40;99.90;;;;;;4966514;28;20544;-76
2022/10/18 01:22:42;;;;;;;5.13;1.10;;;13.50;99.90;;;;;;4967826;28;20031;-76
2022/10/18 01:25:41;;;;;;;1.65;1.50;;;13.50;99.90;;;;;;4966684;28;20035;-76
2022/10/18 01:28:07;;;;;;;;;;;13.40;99.90;;;;;;4968450;28;20027;-76
2022/10/18 01:30:42;;;;;;;1.95;1.75;;;13.40;99.90;;;;;;4967800;28;20000;-76
2022/10/18 01:33:29;;;;;;;3.90;1.77;;;13.50;99.90;;;;;;4966813;28;20030;-76
2022/10/18 01:36:27;;;;;;;3.00;1.85;;;13.40;99.90;;;;;;4968435;28;20030;-76
2022/10/18 01:38:56;;;;;;;2.83;2.15;;;13.40;99.90;;;;;;4967480;28;20066;-76
2022/10/18 01:41:24;;;;;;;3.75;1.60;;;13.50;99.90;;;;;;4982780;28;20070;-75
2022/10/18 01:43:55;;;;;;;4.35;2.28;;;13.50;99.90;;;;;;4985404;28;20018;-76
2022/10/18 01:46:24;;;;;;;21.55;1.42;;;13.50;99.90;;;;;;4970428;28;20585;-76
2022/10/18 01:48:51;;;;;;;1.23;1.10;;;13.40;99.90;;;;;;4986783;28;20419;-76
2022/10/18 01:51:28;;;;;;;3.88;1.98;;;13.00;99.90;;;;;;4971707;28;20483;-76
2022/10/18 01:53:54;;;;;;;1.00;0.95;;;13.30;99.90;;;;;;4972187;28;20317;-75
2022/10/18 01:56:25;;;;;;;1.50;1.40;;;13.30;99.90;;;;;;4972648;28;20095;-76
2022/10/18 01:58:59;;;;;;;3.72;1.27;;;13.30;99.90;;;;;;4972703;28;20035;-76
2022/10/18 02:01:59;;;;;;;1.63;1.40;;;13.20;99.90;;;;;;4974079;28;20073;-75
2022/10/18 02:04:50;;;;;;;2.20;1.90;;;13.20;99.90;;;;;;4952654;28;20034;-75
2022/10/18 02:07:35;;;;;;;1.35;0.95;;;13.20;99.90;;;;;;4971703;28;20026;-76
2022/10/18 02:10:10;;;;;;;1.48;1.15;;;13.20;99.90;;;;;;4971672;28;20077;-76
2022/10/18 02:12:41;;;;;;;2.58;1.25;;;13.10;99.90;;;;;;4971156;28;20030;-74
2022/10/18 02:15:08;;;;;;;1.92;1.73;;;13.10;99.90;;;;;;4971218;28;20488;-74
2022/10/18 02:17:36;;;;;;;3.45;1.52;;;13.00;99.90;;;;;;4984063;28;20386;-73
2022/10/18 02:20:07;;;;;;;2.70;0.88;;;13.00;99.90;;;;;;4990706;28;20042;-74
2022/10/18 02:22:35;;;;;;;20.33;2.08;;;13.00;99.90;;;;;;4992350;28;20030;-73
2022/10/18 02:25:05;;;;;;;3.78;1.52;;;12.90;99.90;;;;;;4992071;28;20034;-73
2022/10/18 02:27:30;;;;;;;0.95;0.90;;;12.80;99.90;;;;;;4992171;28;20030;-73
2022/10/18 02:29:57;;;;;;;1.65;1.38;;;12.80;99.90;;;;;;4991803;28;20449;-74
2022/10/18 02:32:40;;;;;;;1.05;0.95;;;12.70;99.90;;;;;;4992284;28;20018;-73
2022/10/18 02:35:09;;;;;;;1.80;1.48;;;12.60;99.90;;;;;;4993592;28;20026;-74
2022/10/18 02:37:38;;;;;;;;;;;12.60;99.90;;;;;;4994108;28;20033;-76
2022/10/18 02:40:07;;;;;;;1.45;1.08;;;12.50;99.90;;;;;;4993757;28;20370;-74
2022/10/18 02:42:43;;;;;;;1.90;1.40;;;12.40;99.90;;;;;;4993530;28;20037;-74
2022/10/18 02:45:09;;;;;;;1.70;1.60;;;12.40;99.90;;;;;;4993517;28;20062;-74
2022/10/18 02:47:35;;;;;;;3.20;1.45;;;12.30;99.90;;;;;;4993414;28;20040;-74
2022/10/18 02:50:01;;;;;;;1.17;0.95;;;12.30;99.90;;;;;;4993403;28;20030;-73
2022/10/18 02:52:27;;;;;;;1.15;1.10;;;;;;;;;;4993363;28;20034;-73
2022/10/18 02:54:52;;;;;;;1.30;1.20;;;12.00;99.90;;;;;;4990813;28;20046;-73
2022/10/18 02:57:18;;;;;;;4.40;1.40;;;11.90;99.90;;;;;;4993288;28;20608;-72
2022/10/18 02:59:44;;;;;;;6.65;2.35;;;11.90;99.90;;;;;;4993658;28;20030;-72
2022/10/18 03:02:09;;;;;;;5.07;1.63;;;11.80;99.90;;;;;;4991840;28;20022;-73
2022/10/18 03:04:35;;;;;;;15.90;1.30;;;11.80;99.90;;;;;;4990671;28;20038;-73
2022/10/18 03:07:01;;;;;;;2.72;2.08;;;11.80;99.90;;;;;;4988579;28;20031;-73
2022/10/18 03:09:27;;;;;;;3.83;1.92;;;11.70;99.90;;;;;;4988241;28;20050;-74
2022/10/18 03:11:52;;;;;;;1.40;0.98;;;11.70;99.90;;;;;;4973558;28;20110;-73
2022/10/18 03:14:18;;;;;;;1.50;1.38;;;11.60;99.90;;;;;;4973628;28;20588;-73
2022/10/18 03:16:44;;;;;;;1.63;1.15;;;11.60;99.90;;;;;;4973335;28;20102;-73
2022/10/18 03:19:09;;;;;;;3.17;2.28;;;11.60;99.90;;;;;;4973288;28;20035;-73
2022/10/18 03:21:35;;;;;;;4.13;1.95;;;11.50;99.90;;;;;;4973545;28;20062;-73
2022/10/18 03:24:02;;;;;;;2.28;1.08;;;11.40;99.90;;;;;;4973418;28;20150;-74
2022/10/18 03:26:27;;;;;;;1.52;1.42;;;11.30;99.90;;;;;;4973098;28;20038;-74
2022/10/18 03:28:53;;;;;;;2.97;1.75;;;11.30;99.90;;;;;;4973331;28;20023;-75
2022/10/18 03:31:19;;;;;;;1.90;1.58;;;11.30;99.90;;;;;;4973080;28;20167;-74
2022/10/18 03:33:45;;;;;;;9.27;3.08;;;11.30;99.90;;;;;;4972897;28;20019;-73
2022/10/18 03:36:11;;;;;;;0.93;0.73;;;11.30;99.90;;;;;;4971945;28;20510;-75
2022/10/18 03:38:37;;;;;;;8.55;1.33;;;11.20;99.90;;;;;;4973276;28;20035;-74
2022/10/18 03:41:03;;;;;;;0.80;0.75;;;11.20;99.90;;;;;;4973248;28;20427;-74
2022/10/18 03:43:28;;;;;;;2.28;1.52;;;11.10;99.90;;;;;;4973037;28;20035;-75
2022/10/18 03:45:55;;;;;;;1.13;1.02;;;11.20;99.90;;;;;;4971832;28;20484;-75
2022/10/18 03:48:20;;;;;;;5.25;2.47;;;12.10;99.90;;;;;;4986259;28;20410;-74
2022/10/18 03:50:46;;;;;;;1.80;1.10;;;11.10;99.90;;;;;;4971689;28;20106;-74
2022/10/18 03:53:11;;;;;;;1.55;1.33;;;11.20;99.90;;;;;;4972620;28;20455;-74
2022/10/18 03:55:37;;;;;;;3.78;2.03;;;11.20;99.90;;;;;;4972084;28;20027;-74
2022/10/18 03:58:03;;;;;;;1.27;1.17;;;11.10;99.90;;;;;;4971158;28;20022;-75
2022/10/18 04:00:29;;;;;;;5.57;2.40;;;11.10;99.90;;;;;;4970669;28;20035;-74
2022/10/18 04:02:55;;;;;;;1.67;1.58;;;11.10;99.90;;;;;;4970931;28;20219;-74
2022/10/18 04:05:26;;;;;;;1.50;1.05;;;11.10;99.90;;;;;;4970703;28;20070;-74
2022/10/18 04:07:52;;;;;;;0.88;0.80;;;11.00;99.90;;;;;;4970938;28;20019;-73
2022/10/18 04:10:18;;;;;;;2.85;0.88;;;11.00;99.90;;;;;;4971179;28;20031;-74
2022/10/18 04:12:44;;;;;;;2.90;1.23;;;11.00;99.90;;;;;;4973087;28;20023;-75
2022/10/18 04:15:10;;;;;;;2.42;1.63;;;10.90;99.90;;;;;;4972307;28;20026;-73
2022/10/18 04:17:35;;;;;;;1.58;1.25;;;10.90;99.90;;;;;;4972616;28;20022;-74
2022/10/18 04:20:01;;;;;;;2.58;1.42;;;10.90;99.90;;;;;;4972437;28;20051;-73
2022/10/18 04:22:27;;;;;;;8.10;1.55;;;11.00;99.90;;;;;;4972158;28;20026;-74
2022/10/18 04:24:53;;;;;;;6.30;2.78;;;11.00;99.90;;;;;;4972345;28;20210;-74
2022/10/18 04:27:19;;;;;;;1.52;1.30;;;10.90;99.90;;;;;;4972240;28;20077;-73
2022/10/18 04:29:44;;;;;;;2.33;1.30;;;10.90;99.90;;;;;;4971082;28;20109;-73
2022/10/18 04:32:10;;;;;;;0.95;0.80;;;10.90;99.90;;;;;;4972069;28;20192;-73
2022/10/18 04:34:36;;;;;;;2.65;1.55;;;10.70;99.90;;;;;;4970801;28;20019;-74
2022/10/18 04:37:02;;;;;;;2.65;1.30;;;;;;;;;;4972399;28;20590;-74
2022/10/18 04:39:28;;;;;;;3.17;1.73;;;10.60;99.90;;;;;;4971840;28;20534;-73
2022/10/18 04:41:54;;;;;;;1.27;0.95;;;10.50;99.90;;;;;;4971998;28;20030;-74
2022/10/18 04:44:19;;;;;;;1.48;1.13;;;10.50;99.90;;;;;;4986648;28;20109;-74
2022/10/18 04:46:45;;;;;;;3.05;1.25;;;10.40;99.90;;;;;;4972064;28;20031;-73
2022/10/18 04:49:11;;;;;;;3.35;1.17;;;10.50;99.90;;;;;;4972013;28;20038;-73
2022/10/18 04:51:36;;;;;;;1.05;1.05;;;10.60;99.90;;;;;;4972188;28;20041;-73
2022/10/18 04:54:02;;;;;;;1.85;1.02;;;10.60;99.90;;;;;;4971538;28;20031;-73
2022/10/18 04:56:28;;;;;;;1.40;1.23;;;10.60;99.90;;;;;;4971943;28;20368;-73
2022/10/18 04:58:53;;;;;;;3.30;1.50;;;10.60;99.90;;;;;;4971643;28;20383;-74
2022/10/18 05:01:19;;;;;;;1.50;1.40;;;10.60;99.90;;;;;;4971283;28;20026;-74
2022/10/18 05:03:44;;;;;;;2.47;2.22;;;10.70;99.90;;;;;;4971652;28;20035;-74
2022/10/18 05:06:10;;;;;;;3.38;1.00;;;10.80;99.90;;;;;;4971491;28;20035;-74
2022/10/18 05:08:37;;;;;;;2.35;1.52;;;10.70;99.90;;;;;;4972559;28;20061;-76
2022/10/18 05:11:03;;;;;;;2.65;1.67;;;10.80;99.90;;;;;;4971735;28;20101;-74
2022/10/18 05:13:29;;;;;;;2.05;1.85;;;10.80;99.90;;;;;;4971271;28;20027;-74
2022/10/18 05:15:55;;;;;;;1.35;1.20;;;10.80;99.90;;;;;;4971139;28;20106;-73
2022/10/18 05:18:21;;;;;;;1.95;1.33;;;10.80;99.90;;;;;;4971140;28;20105;-75
2022/10/18 05:20:47;;;;;;;1.52;0.90;;;10.90;99.90;;;;;;4970979;28;20046;-73
2022/10/18 05:23:12;;;;;;;1.80;1.60;;;11.00;99.90;;;;;;4971406;28;20464;-73
2022/10/18 05:25:39;;;;;;;9.15;2.03;;;11.10;99.90;;;;;;4971384;28;20043;-73
2022/10/18 05:28:05;;;;;;;2.20;1.80;;;11.20;99.90;;;;;;4971618;28;20038;-73
2022/10/18 05:30:31;;;;;;;2.00;1.70;;;11.30;99.90;;;;;;4978138;28;20488;-73
2022/10/18 05:32:57;;;;;;;2.38;1.10;;;11.40;99.90;;;;;;4971341;28;20019;-73
2022/10/18 05:35:22;;;;;;;2.20;1.27;;;11.50;99.90;;;;;;4971711;28;20026;-73
2022/10/18 05:37:48;;;;;;;2.63;1.90;;;11.50;99.90;;;;;;4972177;28;20558;-75
2022/10/18 05:40:14;;;;;;;1.48;1.00;;;11.50;99.90;;;;;;4971321;28;20477;-73
2022/10/18 05:42:39;;;;;;;2.92;1.25;;;11.50;99.90;;;;;;4986466;28;20035;-73
2022/10/18 05:45:05;;;;;;;2.38;1.80;;;11.50;99.90;;;;;;4974111;28;20031;-74
2022/10/18 05:47:31;;;;;;;1.63;0.77;;;11.40;99.90;;;;;;4973433;28;20476;-75
2022/10/18 05:49:57;;;;;;;1.40;1.10;;;11.50;99.90;;;;;;4973779;28;20046;-74
2022/10/18 05:52:22;;;;;;;2.80;1.20;;;11.60;99.90;;;;;;4971197;28;20550;-74
2022/10/18 05:54:48;;;;;;;1.38;1.27;;;11.50;99.90;;;;;;4973864;28;20026;-76
2022/10/18 05:57:14;;;;;;;1.48;1.25;;;11.60;99.90;;;;;;4987519;28;20242;-76
2022/10/18 05:59:39;;;;;;;3.85;2.17;;;11.50;99.90;;;;;;4984601;28;20027;-76
2022/10/18 06:02:05;;;;;;;3.88;2.03;;;11.60;99.90;;;;;;4968276;28;20057;-76
2022/10/18 06:04:34;;;;;;;1.77;1.20;;;11.60;99.90;;;;;;4967259;28;20041;-76
2022/10/18 06:07:00;;;;;;;1.30;1.20;;;11.60;99.90;;;;;;4987178;28;20030;-75
2022/10/18 06:09:27;;;;;;;1.08;1.02;;;11.60;99.90;;;;;;4987029;28;20497;-76
2022/10/18 06:11:53;;;;;;;4.53;1.52;;;11.60;99.90;;;;;;4986998;28;20030;-75
2022/10/18 06:14:18;;;;;;;2.97;1.42;;;11.60;99.90;;;;;;4986801;28;20049;-76
2022/10/18 06:16:44;;;;;;;2.10;1.95;;;11.50;99.90;;;;;;4987178;28;20098;-76
2022/10/18 06:19:11;;;;;;;1.30;1.20;;;11.60;99.90;;;;;;4985581;28;20117;-75
2022/10/18 06:21:36;;;;;;;22.00;1.75;;;11.60;99.90;;;;;;4986303;28;20114;-76
2022/10/18 06:24:02;;;;;;;2.60;0.98;;;11.60;99.90;;;;;;4986800;28;20595;-76
2022/10/18 06:26:28;;;;;;;3.03;1.77;;;11.60;99.90;;;;;;4986878;28;20539;-76
2022/10/18 06:28:53;;;;;;;4.30;1.88;;;11.60;99.90;;;;;;4986995;28;20026;-76
2022/10/18 06:31:20;;;;;;;1.60;1.10;;;11.70;99.90;;;;;;4989637;28;20144;-76
2022/10/18 06:33:46;;;;;;;2.70;1.50;;;11.60;99.90;;;;;;4990580;28;20529;-76
2022/10/18 06:36:16;;;;;;;4.35;0.70;;;11.50;99.90;;;;;;4990481;28;20033;-77
2022/10/18 06:38:42;;;;;;;1.35;1.23;;;11.50;99.90;;;;;;4990481;28;20463;-76
2022/10/18 06:41:09;;;;;;;3.50;1.48;;;11.50;99.90;;;;;;4990966;28;20423;-76
2022/10/18 06:43:35;;;;;;;3.05;1.73;;;;;;;;;;4990305;28;20080;-76
2022/10/18 06:46:05;;;;;;;0.98;0.70;;;11.50;99.90;;;;;;4990188;28;20035;-76
2022/10/18 06:48:31;;;;;;;1.63;1.52;;;11.70;99.90;;;;;;4990164;28;20015;-76
2022/10/18 06:51:00;;;;;;;1.85;1.17;;;11.90;99.90;;;;;;4990391;28;20018;-76
2022/10/18 06:53:31;;;;;;;1.83;1.30;;;12.10;99.90;;;;;;4990318;28;20014;-76
2022/10/18 06:56:02;;;;;;;4.00;1.25;;;12.20;99.90;;;;;;4988949;28;20029;-76
2022/10/18 06:58:29;;;;;;;2.20;1.30;;;12.30;99.90;;;;;;4988702;28;20022;-75
2022/10/18 07:00:55;;;;;;;8.05;1.80;;;12.40;99.90;;;;;;4990092;28;20030;-76
2022/10/18 07:03:21;;;;;;;5.97;2.30;;;12.50;99.90;;;;;;4990322;28;20498;-74
2022/10/18 07:05:48;;;;;;;4.20;2.20;;;12.60;99.90;;;;;;4988075;28;20038;-76
2022/10/18 07:08:13;;;;;;;4.13;2.13;;;12.80;99.90;;;;;;4992259;28;20050;-75
2022/10/18 07:10:39;;;;;;;3.97;3.20;;;12.90;99.90;;;;;;4990042;28;20034;-76
2022/10/18 07:13:05;;;;;;;2.15;1.92;;;13.00;99.90;;;;;;4989443;28;20149;-76
2022/10/18 07:15:30;;;;;;;1.40;1.30;;;13.20;99.90;;;;;;4989137;28;20483;-76
2022/10/18 07:17:56;;;;;;;7.07;1.90;;;13.30;99.90;;;;;;4990072;28;20031;-77
2022/10/18 07:20:22;;;;;;;2.78;2.00;;;13.50;99.90;;;;;;4989587;28;20051;-76
2022/10/18 07:22:47;;;;;;;1.92;1.80;;;13.70;99.90;;;;;;4989222;28;20037;-76
2022/10/18 07:25:13;;;;;;;2.58;1.40;;;13.80;99.90;;;;;;4987524;28;20045;-76
2022/10/18 07:27:40;;;;;;;3.60;1.88;;;14.10;99.90;;;;;;4989184;28;20034;-76
2022/10/18 07:30:08;;;;;;;1.98;1.83;;;14.40;99.90;;;;;;4988863;28;20027;-76
2022/10/18 07:32:34;;;;;;;3.47;1.70;;;14.70;99.90;;;;;;4988925;28;20112;-76
2022/10/18 07:35:01;;;;;;;2.40;2.20;;;14.90;99.90;;;;;;4988694;28;20030;-75
2022/10/18 07:37:27;;;;;;;1.77;1.33;;;15.20;99.90;;;;;;4988740;28;20023;-75
2022/10/18 07:39:53;;;;;;;3.00;1.70;;;15.40;99.90;;;;;;4988798;28;20022;-76
2022/10/18 07:42:18;;;;;;;2.97;1.55;;;15.70;99.90;;;;;;4988228;28;20027;-76
2022/10/18 07:44:44;;;;;;;2.08;1.67;;;15.80;99.90;;;;;;4988480;28;20035;-76
2022/10/18 07:47:10;;;;;;;2.25;1.73;;;15.60;99.90;;;;;;4989098;28;20285;-76
2022/10/18 07:49:35;;;;;;;2.90;1.70;;;15.80;99.90;;;;;;4974885;28;20113;-75
2022/10/18 07:52:01;;;;;;;2.60;2.25;;;16.00;99.90;;;;;;4969575;28;20031;-76
2022/10/18 07:54:26;;;;;;;2.30;1.67;;;16.10;99.90;;;;;;4968971;28;20101;-76
2022/10/18 07:56:52;;;;;;;4.68;1.73;;;16.30;99.90;;;;;;4984312;28;20031;-77
2022/10/18 07:59:18;;;;;;;2.92;1.80;;;16.40;99.90;;;;;;4968953;28;20035;-75
2022/10/18 08:01:43;;;;;;;1.40;1.27;;;16.30;99.90;;;;;;4969051;28;20037;-77
2022/10/18 08:04:09;;;;;;;1.65;1.08;;;16.20;99.90;;;;;;4967323;28;20170;-76
2022/10/18 08:06:35;;;;;;;1.48;1.33;;;16.00;99.90;;;;;;4968968;28;20031;-76
2022/10/18 08:09:00;;;;;;;1.52;1.33;;;15.90;99.90;;;;;;4968609;28;20027;-76
2022/10/18 08:11:26;;;;;;;1.75;1.30;;;15.70;99.90;;;;;;4969135;28;20023;-76
2022/10/18 08:13:53;;;;;;;3.30;1.23;;;15.80;99.90;;;;;;4969174;28;20454;-76
2022/10/18 08:16:24;;;;;;;5.97;1.23;;;15.80;99.90;;;;;;4968916;28;20488;-76
2022/10/18 08:18:50;;;;;;;1.27;1.08;;;15.80;99.90;;;;;;4968550;28;20097;-75
2022/10/18 08:21:17;;;;;;;4.80;1.45;;;15.90;99.90;;;;;;4969301;28;20577;-76
2022/10/18 08:23:43;;;;;;;3.45;2.72;;;16.20;99.90;;;;;;4967649;28;20031;-75
2022/10/18 08:26:12;;;;;;;2.67;1.45;;;16.50;99.90;;;;;;4968358;28;20042;-76
2022/10/18 08:28:39;;;;;;;1.88;1.15;;;16.70;99.90;;;;;;4968517;28;20037;-75
2022/10/18 08:31:06;;;;;;;7.28;1.63;;;16.90;99.90;;;;;;4966064;28;20037;-76
2022/10/18 08:33:33;;;;;;;3.55;1.35;;;17.00;99.90;;;;;;4968462;28;20023;-77
2022/10/18 08:36:04;;;;;;;5.13;1.92;;;17.00;99.90;;;;;;4967632;28;20514;-76
2022/10/18 08:38:30;;;;;;;2.60;1.42;;;17.00;99.90;;;;;;4965449;28;20110;-76
2022/10/18 08:40:59;;;;;;;1.65;1.55;;;17.00;99.90;;;;;;4967208;28;20082;-76
2022/10/18 08:43:24;;;;;;;4.38;1.38;;;17.10;99.90;;;;;;4966249;28;20033;-75
2022/10/18 08:45:53;;;;;;;1.95;1.35;;;17.10;99.90;;;;;;4966093;28;20034;-76
2022/10/18 08:48:35;;;;;;;1.75;1.30;;;17.10;99.90;;;;;;4970226;28;20117;-76
2022/10/18 08:51:05;;;;;;;2.70;1.30;;;17.10;99.90;;;;;;4986342;28;20053;-76
2022/10/18 08:53:39;;;;;;;2.15;1.63;;;17.10;99.90;;;;;;4985347;28;20064;-75
2022/10/18 08:56:13;;;;;;;1.45;1.08;;;17.20;99.90;;;;;;4987504;28;20046;-77
2022/10/18 08:58:41;;;;;;;3.80;1.65;;;17.20;99.90;;;;;;4987607;28;20419;-76
2022/10/18 09:01:28;;;;;;;14.00;1.67;;;17.30;99.90;;;;;;4987078;28;20029;-76
2022/10/18 09:04:19;;;;;;;10.48;1.45;;;17.40;99.90;;;;;;4987134;28;20406;-77
2022/10/18 09:07:06;;;;;;;4.18;3.20;;;17.80;99.90;;;;;;4987643;28;20038;-77
2022/10/18 09:09:37;;;;;;;3.83;1.90;;;18.00;99.90;;;;;;4985764;28;20471;-77
2022/10/18 09:12:42;;;;;;;6.55;2.35;;;18.50;99.90;;;;;;4986335;28;20034;-75
2022/10/18 09:15:11;;;;;;;9.88;1.65;;;18.60;99.90;;;;;;4987378;28;20468;-75
2022/10/18 09:17:46;;;;;;;1.00;0.90;;;18.90;99.90;;;;;;4987635;28;20438;-74
2022/10/18 09:20:25;;;;;;;3.30;0.98;;;19.10;99.90;;;;;;4994002;28;20262;-73
2022/10/18 09:23:13;;;;;;;5.18;1.48;;;19.20;99.90;;;;;;4997102;28;20026;-74
2022/10/18 09:25:47;;;;;;;2.93;2.17;;;19.30;99.90;;;;;;4989860;28;20121;-74
2022/10/18 09:28:34;;;;;;;1.83;1.70;;;19.40;99.90;;;;;;4987699;28;20293;-76
2022/10/18 09:31:26;;;;;;;2.45;1.23;;;19.40;99.90;;;;;;4988891;28;20053;-76
2022/10/18 09:34:13;;;;;;;0.85;0.60;;;19.40;99.90;;;;;;4979956;28;20040;-75
2022/10/18 09:36:39;;;;;;;1.40;1.08;;;19.30;99.90;;;;;;4986993;28;20034;-76
2022/10/18 09:39:12;;;;;;;1.85;0.90;;;19.20;99.90;;;;;;4987017;28;20023;-75
2022/10/18 09:41:50;;;;;;;0.82;0.82;;;19.10;99.90;;;;;;4987222;28;20025;-74
2022/10/18 09:44:23;;;;;;;3.13;1.10;;;19.10;99.90;;;;;;4988590;28;20027;-74
2022/10/18 09:46:55;;;;;;;5.32;2.05;;;19.10;99.90;;;;;;4987378;28;20391;-77
2022/10/18 09:49:35;;;;;;;4.15;2.53;;;19.30;99.90;;;;;;4990226;28;20018;-74
2022/10/18 09:52:08;;;;;;;5.63;1.60;;;19.40;99.90;;;;;;4989010;28;20026;-75
2022/10/18 09:54:54;;;;;;;4.68;2.35;;;19.50;99.90;;;;;;4989771;28;20423;-74
2022/10/18 09:57:36;;;;;;;4.20;2.03;;;19.60;99.90;;;;;;4990238;28;20026;-74
2022/10/18 10:00:05;;;;;;;1.77;1.67;;;19.60;99.90;;;;;;4989043;28;20117;-77
2022/10/18 10:02:31;;;;;;;1.27;1.17;;;19.60;99.90;;;;;;4990145;28;20018;-77
2022/10/18 10:04:57;;;;;;;1.83;1.02;;;19.60;99.90;;;;;;4991080;28;20038;-74
2022/10/18 10:07:32;;;;;;;1.52;0.55;;;19.80;99.90;;;;;;4992777;28;20501;-74
2022/10/18 10:10:08;;;;;;;2.05;0.65;;;19.90;99.90;;;;;;4994072;28;20018;-74
2022/10/18 10:12:38;;;;;;;1.20;0.70;;;20.10;99.90;;;;;;4994114;28;20026;-74
2022/10/18 10:15:24;;;;;;;2.08;1.05;;;20.20;99.90;;;;;;4993556;28;20061;-74
2022/10/18 10:18:13;;;;;;;0.95;0.95;;;20.30;99.90;;;;;;4994232;28;20043;-74
2022/10/18 10:20:51;;;;;;;0.52;0.45;;;20.40;99.90;;;;;;4996439;28;20057;-73
2022/10/18 10:23:50;;;;;;;3.20;1.00;;;20.40;99.90;;;;;;4992157;28;20030;-74
2022/10/18 10:26:24;;;;;;;1.20;0.95;;;20.50;99.90;;;;;;4993613;28;20034;-75
2022/10/18 10:28:50;;;;;;;0.65;0.60;;;20.60;99.90;;;;;;4993491;28;20034;-73
2022/10/18 10:31:29;;;;;;;1.02;0.80;;;20.60;99.90;;;;;;4993103;28;20027;-74
2022/10/18 10:34:00;;;;;;;0.70;0.70;;;20.60;99.90;;;;;;4992209;28;20024;-75
2022/10/18 10:36:26;;;;;;;1.00;0.60;;;20.70;99.90;;;;;;4992052;28;20561;-76
2022/10/18 10:39:04;;;;;;;0.60;0.60;;;20.70;99.90;;;;;;4993403;28;20034;-77
2022/10/18 10:41:30;;;;;;;1.33;1.23;;;20.70;99.90;;;;;;4993275;28;20026;-76
2022/10/18 10:43:56;;;;;;;1.25;0.90;;;20.80;99.90;;;;;;4991790;28;20033;-76
2022/10/18 10:46:22;;;;;;;2.85;0.55;;;20.90;99.90;;;;;;4991393;28;20069;-75
2022/10/18 10:48:55;;;;;;;3.28;0.60;;;20.90;99.90;;;;;;4986417;28;20085;-75
2022/10/18 10:51:38;;;;;;;1.33;0.80;;;21.10;99.90;;;;;;4973719;28;20081;-75
2022/10/18 10:54:07;;;;;;;4.18;0.85;;;21.10;99.90;;;;;;4973802;28;20025;-75
2022/10/18 10:56:36;;;;;;;1.02;0.93;;;21.10;99.90;;;;;;4973499;28;20491;-75
2022/10/18 10:59:17;;;;;;;1.27;0.85;;;21.20;99.90;;;;;;4974901;28;20403;-76
2022/10/18 11:01:44;;;;;;;0.98;0.65;;;21.20;99.90;;;;;;4973878;28;20023;-75
2022/10/18 11:04:31;;;;;;;1.65;1.17;;;21.20;99.90;;;;;;4974088;28;20035;-75
2022/10/18 11:07:03;;;;;;;6.03;0.90;;;21.20;99.90;;;;;;4974676;28;20049;-75
2022/10/18 11:09:44;;;;;;;1.00;0.82;;;21.30;99.90;;;;;;4973517;28;20127;-75
2022/10/18 11:12:22;;;;;;;3.58;2.15;;;21.40;99.90;;;;;;4973768;28;20023;-76
2022/10/18 11:15:09;;;;;;;0.60;0.60;;;21.30;99.90;;;;;;4988580;28;20537;-75
2022/10/18 11:17:42;;;;;;;0.30;0.30;;;21.20;99.90;;;;;;4973389;28;20019;-74
2022/10/18 11:20:11;;;;;;;1.75;0.68;;;21.20;99.90;;;;;;4973158;28;20122;-76
2022/10/18 11:22:45;;;;;;;5.85;1.02;;;21.30;99.90;;;;;;4973126;28;20089;-75
2022/10/18 11:25:15;;;;;;;0.60;0.60;;;21.30;99.90;;;;;;4988806;28;20059;-75
2022/10/18 11:27:57;;;;;;;6.78;1.05;;;21.50;99.90;;;;;;4997680;28;20109;-76
2022/10/18 11:30:58;;;;;;;5.57;0.77;;;21.50;99.90;;;;;;4992504;28;20014;-75
2022/10/18 11:33:32;;;;;;;0.68;0.68;;;21.40;99.90;;;;;;4992708;28;20129;-76
2022/10/18 11:36:09;;;;;;;7.85;0.82;;;21.40;99.90;;;;;;4990923;28;20030;-76
2022/10/18 11:39:05;;;;;;;0.73;0.65;;;21.40;99.90;;;;;;4980969;28;20034;-78
2022/10/18 11:41:47;;;;;;;2.47;1.20;;;21.50;99.90;;;;;;4971331;28;20045;-76
2022/10/18 11:44:32;;;;;;;0.73;0.70;;;21.40;99.90;;;;;;4983043;28;20208;-77
2022/10/18 11:47:23;;;;;;;0.50;0.50;;;21.40;99.90;;;;;;4989889;28;20035;-77
2022/10/18 11:50:07;;;;;;;0.60;0.60;;;21.40;99.90;;;;;;4989224;28;20077;-78
2022/10/18 11:52:39;;;;;;;0.50;0.50;;;21.50;99.90;;;;;;4982601;28;20425;-77
2022/10/18 11:55:25;;;;;;;7.05;0.90;;;21.70;99.90;;;;;;4972651;28;20269;-75
2022/10/18 11:58:12;;;;;;;7.32;0.55;;;21.70;99.90;;;;;;4986130;28;20545;-75
2022/10/18 12:00:49;;;;;;;0.52;0.40;;;21.80;99.90;;;;;;4988100;28;20030;-77
2022/10/18 12:03:41;;;;;;;0.50;0.50;;;21.90;99.90;;;;;;4987000;28;20018;-77
2022/10/18 12:06:29;;;;;;;0.95;0.80;;;21.90;99.90;;;;;;4986511;28;20081;-78
2022/10/18 12:09:09;;;;;;;0.68;0.68;;;21.90;99.90;;;;;;4988411;28;20080;-78
2022/10/18 12:11:44;;;;;;;0.73;0.73;;;22.10;99.90;;;;;;4988255;28;20653;-77
2022/10/18 12:14:18;;;;;;;8.15;1.58;;;22.10;99.90;;;;;;4987957;28;20112;-77
2022/10/18 12:16:44;;;;;;;9.35;0.95;;;22.50;99.90;;;;;;4987080;28;20034;-75
2022/10/18 12:19:21;;;;;;;1.13;1.13;;;22.70;99.90;;;;;;4988348;28;20495;-74
2022/10/18 12:21:47;;;;;;;2.28;0.45;;;22.70;99.90;;;;;;4988036;28;20407;-74
2022/10/18 12:24:21;;;;;;;0.30;0.30;;;23.30;99.90;;;;;;4987580;28;20033;-77
2022/10/18 12:26:51;;;;;;;0.50;0.30;;;24.50;96.70;;;;;;4988846;28;20041;-75
2022/10/18 12:29:23;;;;;;;3.28;0.45;;;25.50;90.50;;;;;;4988669;28;20022;-77
2022/10/18 12:32:15;;;;;;;2.03;0.98;;;26.20;79.40;;;;;;4982552;28;20029;-76
2022/10/18 12:35:08;;;;;;;1.23;1.05;;;26.90;73.90;;;;;;4960119;28;20043;-73
2022/10/18 12:37:46;;;;;;;0.63;0.47;;;27.80;70.20;;;;;;4968657;28;20046;-75
2022/10/18 12:40:15;;;;;;;1.58;0.43;;;28.50;66.30;;;;;;4969304;28;20031;-78
2022/10/18 12:42:46;;;;;;;1.30;0.55;;;29.30;62.50;;;;;;4967673;28;20375;-76
2022/10/18 12:45:12;;;;;;;0.75;0.75;;;30.00;61.70;;;;;;4969361;28;20121;-78
2022/10/18 12:47:39;;;;;;;6.05;0.85;;;29.90;60.10;;;;;;4967573;28;20110;-78
2022/10/18 12:50:21;;;;;;;0.38;0.38;;;29.40;59.10;;;;;;4968235;28;20455;-78
2022/10/18 12:53:02;;;;;;;5.72;1.17;;;28.80;59.90;;;;;;4968566;28;20026;-77
2022/10/18 12:55:31;;;;;;;1.80;0.85;;;28.40;61.10;;;;;;4968098;28;20026;-77
2022/10/18 12:57:57;;;;;;;2.00;1.08;;;28.80;60.60;;;;;;4966993;28;20077;-78
2022/10/18 13:00:28;;;;;;;5.35;2.35;;;29.30;59.80;;;;;;4967782;28;20050;-78
2022/10/18 13:03:13;;;;;;;0.50;0.43;;;29.40;59.70;;;;;;4967937;28;20369;-78
2022/10/18 13:05:53;;;;;;;0.30;0.30;;;29.50;58.20;;;;;;4969341;28;20038;-77
2022/10/18 13:08:29;;;;;;;1.02;0.47;;;29.50;58.90;;;;;;4966532;28;20027;-77